createdAt,value
2019-03-03T00:01:24.137Z,4.58
2019-03-03T00:03:56.000Z,4.55
2019-03-03T00:06:27.046Z,4.45
2019-03-03T00:08:57.560Z,4.47
2019-03-03T00:11:28.126Z,4.45
2019-03-03T00:13:58.724Z,4.48
2019-03-03T00:21:58.240Z,4.45
2019-03-03T00:24:30.433Z,4.44
2019-03-03T00:27:00.939Z,4.46
2019-03-03T00:29:31.491Z,4.37
2019-03-03T00:32:01.916Z,4.43
2019-03-03T00:34:51.268Z,4.43
2019-03-03T00:37:40.629Z,4.42
2019-03-03T00:40:29.809Z,4.42
2019-03-03T00:43:07.695Z,4.31
2019-03-03T00:45:56.978Z,4.36
2019-03-03T00:48:46.137Z,4.24
2019-03-03T00:51:23.456Z,4.33
2019-03-03T00:54:11.463Z,4.33
2019-03-03T00:56:49.040Z,4.34
2019-03-03T00:59:38.142Z,4.36
2019-03-03T01:02:30.725Z,4.34
2019-03-03T01:05:31.621Z,4.33
2019-03-03T01:08:20.757Z,4.33
2019-03-03T01:11:32.267Z,4.34
2019-03-03T01:14:21.465Z,4.36
2019-03-03T01:17:10.707Z,4.36
2019-03-03T01:19:59.823Z,4.37
2019-03-03T01:22:48.962Z,4.31
2019-03-03T01:25:19.070Z,4.33
2019-03-03T01:27:49.172Z,4.31
2019-03-03T01:30:19.294Z,4.35
2019-03-03T01:32:49.407Z,4.32
2019-03-03T01:35:19.516Z,4.30
2019-03-03T01:37:49.690Z,4.32
2019-03-03T01:40:19.805Z,4.23
2019-03-03T01:42:51.906Z,4.30
2019-03-03T01:45:22.364Z,4.29
2019-03-03T01:47:52.821Z,4.33
2019-03-03T01:50:23.435Z,4.30
2019-03-03T01:55:43.356Z,4.31
2019-03-03T01:58:13.793Z,4.25
2019-03-03T02:00:44.969Z,4.33
2019-03-03T02:06:32.430Z,4.30
2019-03-03T02:09:03.032Z,4.30
2019-03-03T02:11:35.207Z,4.35
2019-03-03T02:14:05.675Z,4.33
2019-03-03T02:16:36.198Z,4.30
2019-03-03T02:19:06.749Z,4.30
2019-03-03T02:27:16.172Z,4.18
2019-03-03T02:29:46.684Z,4.23
2019-03-03T02:32:17.286Z,4.25
2019-03-03T02:34:47.995Z,4.26
2019-03-03T02:40:09.564Z,4.26
2019-03-03T02:42:40.071Z,4.22
2019-03-03T02:45:12.126Z,4.25
2019-03-03T02:47:42.894Z,4.25
2019-03-03T02:50:32.388Z,4.18
2019-03-03T02:53:03.047Z,4.19
2019-03-03T02:55:33.595Z,4.19
2019-03-03T02:58:04.074Z,4.20
2019-03-03T03:03:18.814Z,4.16
2019-03-03T03:06:08.244Z,4.12
2019-03-03T03:08:57.482Z,4.15
2019-03-03T03:11:46.911Z,4.16
2019-03-03T03:14:36.239Z,4.12
2019-03-03T03:17:23.142Z,4.14
2019-03-03T03:20:12.527Z,4.05
2019-03-03T03:23:01.794Z,4.03
2019-03-03T03:28:21.344Z,3.88
2019-03-03T03:31:10.605Z,3.85
2019-03-03T03:34:01.506Z,3.85
2019-03-03T03:36:47.302Z,3.84
2019-03-03T03:39:36.688Z,3.77
2019-03-03T03:42:26.264Z,3.60
2019-03-03T03:45:15.546Z,3.59
2019-03-03T03:48:04.858Z,3.04
2019-03-03T03:50:54.156Z,3.73
2019-03-03T03:53:43.621Z,3.73
2019-03-03T03:56:22.193Z,3.76
2019-03-03T03:59:11.599Z,3.58
2019-03-03T04:02:01.089Z,3.61
2019-03-03T04:04:50.346Z,3.55
2019-03-03T04:07:39.974Z,3.54
2019-03-03T04:10:17.481Z,3.59
2019-03-03T04:12:54.943Z,3.66
2019-03-03T04:15:44.219Z,3.55
2019-03-03T04:18:21.770Z,3.54
2019-03-03T04:21:11.173Z,3.62
2019-03-03T04:24:00.651Z,3.66
2019-03-03T04:26:49.993Z,3.41
2019-03-03T04:29:39.256Z,3.51
2019-03-03T04:32:28.592Z,3.35
2019-03-03T04:35:17.965Z,3.28
2019-03-03T04:38:07.317Z,3.34
2019-03-03T04:40:56.735Z,3.28
2019-03-03T04:43:42.108Z,3.31
2019-03-03T04:46:17.359Z,3.24
2019-03-03T04:49:07.027Z,3.42
2019-03-03T04:51:56.260Z,3.30
2019-03-03T04:54:45.634Z,3.42
2019-03-03T04:57:35.133Z,3.33
2019-03-03T05:03:26.949Z,3.56
2019-03-03T05:06:03.103Z,3.44
2019-03-03T05:08:52.254Z,3.40
2019-03-03T05:12:19.427Z,3.44
2019-03-03T05:18:06.004Z,3.40
2019-03-03T05:20:46.086Z,3.40
2019-03-03T05:23:23.398Z,3.40
2019-03-03T05:25:55.291Z,3.42
2019-03-03T05:28:25.531Z,3.43
2019-03-03T05:33:37.992Z,3.33
2019-03-03T05:36:08.251Z,3.33
2019-03-03T05:38:57.861Z,3.28
2019-03-03T05:41:28.460Z,3.22
2019-03-03T05:43:58.697Z,3.18
2019-03-03T05:46:29.300Z,3.13
2019-03-03T05:49:18.489Z,3.08
2019-03-03T05:51:48.725Z,3.02
2019-03-03T06:00:09.883Z,3.17
2019-03-03T06:05:25.840Z,3.30
2019-03-03T06:13:29.095Z,3.07
2019-03-03T06:18:52.899Z,2.98
2019-03-03T06:21:23.035Z,3.17
2019-03-03T06:23:53.271Z,3.14
2019-03-03T06:34:54.953Z,3.14
2019-03-03T06:37:27.859Z,3.25
2019-03-03T06:40:18.970Z,3.20
2019-03-03T06:43:06.396Z,3.36
2019-03-03T06:48:23.738Z,3.34
2019-03-03T06:54:05.001Z,3.13
2019-03-03T07:02:07.992Z,3.22
2019-03-03T07:05:13.250Z,3.13
2019-03-03T07:10:47.891Z,3.11
2019-03-03T07:13:18.484Z,3.00
2019-03-03T07:18:41.968Z,2.99
2019-03-03T07:21:12.312Z,3.03
2019-03-03T07:26:31.988Z,3.05
2019-03-03T07:32:11.139Z,3.01
2019-03-03T07:34:41.766Z,2.96
2019-03-03T07:37:12.420Z,3.02
2019-03-03T07:39:43.161Z,3.05
2019-03-03T07:42:15.132Z,3.08
2019-03-03T07:48:11.433Z,2.99
2019-03-03T07:50:42.048Z,3.03
2019-03-03T07:53:35.210Z,3.06
2019-03-03T07:56:05.641Z,3.08
2019-03-03T07:58:36.061Z,3.10
2019-03-03T08:01:06.516Z,3.05
2019-03-03T08:03:37.473Z,3.14
2019-03-03T08:06:08.057Z,3.14
2019-03-03T08:08:38.750Z,3.19
2019-03-03T08:11:09.577Z,3.21
2019-03-03T08:13:46.985Z,3.20
2019-03-03T08:16:37.860Z,3.10
2019-03-03T08:19:28.835Z,3.05
2019-03-03T08:27:23.901Z,3.02
2019-03-03T08:30:14.870Z,3.10
2019-03-03T08:32:45.893Z,3.04
2019-03-03T08:35:16.971Z,2.96
2019-03-03T08:38:07.913Z,2.98
2019-03-03T08:40:45.575Z,3.15
2019-03-03T08:43:45.603Z,3.18
2019-03-03T08:46:28.588Z,3.10
2019-03-03T08:49:38.385Z,3.00
2019-03-03T08:52:16.721Z,3.00
2019-03-03T08:55:06.249Z,2.97
2019-03-03T08:58:16.000Z,3.17
2019-03-03T09:06:31.615Z,3.14
2019-03-03T09:09:41.322Z,3.11
2019-03-03T09:12:30.879Z,3.15
2019-03-03T09:15:40.796Z,3.14
2019-03-03T09:18:44.049Z,3.13
2019-03-03T09:21:53.852Z,3.12
2019-03-03T09:25:05.021Z,3.15
2019-03-03T09:28:15.125Z,3.08
2019-03-03T09:31:27.231Z,3.19
2019-03-03T09:37:00.122Z,3.13
2019-03-03T09:40:09.994Z,3.18
2019-03-03T09:43:19.897Z,3.22
2019-03-03T09:46:20.012Z,3.19
2019-03-03T09:49:10.996Z,3.16
2019-03-03T10:00:30.760Z,3.13
2019-03-03T10:03:47.173Z,3.19
2019-03-03T10:06:42.281Z,3.13
2019-03-03T10:09:53.747Z,3.28
2019-03-03T10:12:44.547Z,3.27
2019-03-03T10:15:37.302Z,3.20
2019-03-03T10:18:29.791Z,3.19
2019-03-03T10:21:40.057Z,3.20
2019-03-03T10:24:33.077Z,3.25
2019-03-03T10:27:42.776Z,3.34
2019-03-03T10:30:56.212Z,3.34
2019-03-03T10:33:49.706Z,3.34
2019-03-03T10:40:02.978Z,3.45
2019-03-03T10:42:57.127Z,3.49
2019-03-03T10:52:14.366Z,3.53
2019-03-03T10:55:18.173Z,3.45
2019-03-03T11:04:21.310Z,3.47
2019-03-03T11:18:44.760Z,3.55
2019-03-03T11:24:57.054Z,3.44
2019-03-03T11:28:08.350Z,3.51
2019-03-03T11:33:53.409Z,3.66
2019-03-03T11:37:04.180Z,3.69
2019-03-03T11:43:13.639Z,3.64
2019-03-03T11:49:10.124Z,3.71
2019-03-03T11:55:15.429Z,3.80
2019-03-03T11:58:25.408Z,4.05
2019-03-03T12:04:19.058Z,4.13
2019-03-03T12:10:34.162Z,4.38
2019-03-03T12:16:38.697Z,4.46
2019-03-03T12:28:29.934Z,4.70
2019-03-03T12:31:19.290Z,4.78
2019-03-03T12:43:14.835Z,4.97
2019-03-03T12:48:47.207Z,4.85
2019-03-03T12:52:15.006Z,4.86
2019-03-03T12:55:15.367Z,4.95
2019-03-03T13:01:40.160Z,4.95
2019-03-03T13:04:52.091Z,5.05
2019-03-03T13:22:40.369Z,5.23
2019-03-03T13:28:26.868Z,5.38
2019-03-03T13:31:16.112Z,5.53
2019-03-03T13:34:06.976Z,5.66
2019-03-03T13:36:56.232Z,5.75
2019-03-03T13:45:01.656Z,6.09
2019-03-03T13:56:33.300Z,6.39
2019-03-03T13:59:24.009Z,6.48
2019-03-03T14:01:54.129Z,6.50
2019-03-03T14:04:24.278Z,6.67
2019-03-03T14:06:54.522Z,6.72
2019-03-03T14:09:24.831Z,6.80
2019-03-03T14:11:54.981Z,6.89
2019-03-03T14:14:25.082Z,6.99
2019-03-03T14:16:55.198Z,7.01
2019-03-03T14:19:25.336Z,7.04
2019-03-03T14:21:55.450Z,7.08
2019-03-03T14:24:25.564Z,7.10
2019-03-03T14:32:26.936Z,7.18
2019-03-03T14:34:57.114Z,7.14
2019-03-03T14:37:27.222Z,7.16
2019-03-03T14:43:07.195Z,7.28
2019-03-03T14:45:58.003Z,7.30
2019-03-03T14:48:28.295Z,7.29
2019-03-03T14:50:58.414Z,7.26
2019-03-03T14:53:28.536Z,7.29
2019-03-03T14:55:58.639Z,7.31
2019-03-03T14:58:28.772Z,7.31
2019-03-03T15:00:58.886Z,7.37
2019-03-03T15:03:29.072Z,7.45
2019-03-03T15:05:59.233Z,7.43
2019-03-03T15:08:31.025Z,7.44
2019-03-03T15:11:01.112Z,7.48
2019-03-03T15:13:31.233Z,7.52
2019-03-03T15:16:01.329Z,7.55
2019-03-03T15:18:31.452Z,7.62
2019-03-03T15:21:01.581Z,7.60
2019-03-03T15:26:23.012Z,7.63
2019-03-03T15:31:37.944Z,7.65
2019-03-03T15:34:28.075Z,7.62
2019-03-03T15:39:42.786Z,7.68
2019-03-03T15:42:33.605Z,7.70
2019-03-03T15:45:15.761Z,7.71
2019-03-03T15:48:06.721Z,7.63
2019-03-03T15:50:37.021Z,7.73
2019-03-03T15:53:07.172Z,7.76
2019-03-03T15:55:56.306Z,7.73
2019-03-03T15:58:55.415Z,7.73
2019-03-03T16:01:24.894Z,7.71
2019-03-03T16:07:10.313Z,7.65
2019-03-03T16:09:40.593Z,7.60
2019-03-03T16:12:15.671Z,7.56
2019-03-03T16:14:45.825Z,7.61
2019-03-03T16:20:18.524Z,7.52
2019-03-03T16:31:26.668Z,7.45
2019-03-03T16:33:57.087Z,7.38
2019-03-03T16:39:32.317Z,7.39
2019-03-03T16:42:02.438Z,7.34
2019-03-03T16:44:32.583Z,7.28
2019-03-03T16:47:02.796Z,7.30
2019-03-03T16:49:32.929Z,7.25
2019-03-03T16:52:41.315Z,7.30
2019-03-03T16:55:16.989Z,7.22
2019-03-03T17:01:05.396Z,7.27
2019-03-03T17:03:41.386Z,7.30
2019-03-03T17:06:30.677Z,7.29
2019-03-03T17:09:00.782Z,7.28
2019-03-03T17:20:29.072Z,7.25
2019-03-03T17:22:59.255Z,7.13
2019-03-03T17:25:41.222Z,7.14
2019-03-03T17:28:23.231Z,7.19
2019-03-03T17:30:53.386Z,7.20
2019-03-03T17:33:23.593Z,7.20
2019-03-03T17:35:56.225Z,7.20
2019-03-03T17:38:26.455Z,7.16
2019-03-03T17:43:51.514Z,7.17
2019-03-03T17:46:23.285Z,7.19
2019-03-03T17:48:53.609Z,7.18
2019-03-03T17:54:05.854Z,7.18
2019-03-03T17:56:35.994Z,7.19
2019-03-03T17:59:06.214Z,7.22
2019-03-03T18:04:28.149Z,7.28
2019-03-03T18:06:58.956Z,7.30
2019-03-03T18:12:12.194Z,7.26
2019-03-03T18:14:42.512Z,7.29
2019-03-03T18:26:25.547Z,7.28
2019-03-03T18:28:56.345Z,7.32
2019-03-03T18:37:18.024Z,7.14
2019-03-03T18:39:48.124Z,7.12
2019-03-03T18:42:37.370Z,7.08
2019-03-03T18:48:19.863Z,7.02
2019-03-03T18:50:51.959Z,6.98
2019-03-03T18:53:22.635Z,6.97
2019-03-03T18:55:53.443Z,6.86
2019-03-03T19:01:41.722Z,6.84
2019-03-03T19:04:11.862Z,6.82
2019-03-03T19:06:42.041Z,6.84
2019-03-03T19:09:17.632Z,6.80
2019-03-03T19:15:16.910Z,6.70
2019-03-03T19:17:59.022Z,6.73
2019-03-03T19:20:31.297Z,6.69
2019-03-03T19:23:01.465Z,6.70
2019-03-03T19:25:31.624Z,6.68
2019-03-03T19:28:01.786Z,6.67
2019-03-03T19:30:31.890Z,6.60
2019-03-03T19:33:10.997Z,6.45
2019-03-03T19:35:41.126Z,6.08
2019-03-03T19:38:11.273Z,5.73
2019-03-03T19:40:41.371Z,5.71
2019-03-03T19:43:11.584Z,5.75
2019-03-03T19:45:41.760Z,5.79
2019-03-03T19:48:12.022Z,5.75
2019-03-03T19:50:42.203Z,5.75
2019-03-03T19:53:14.048Z,5.66
2019-03-03T19:55:45.832Z,5.68
2019-03-03T19:58:55.666Z,5.63
2019-03-03T20:01:31.723Z,5.44
2019-03-03T20:04:20.070Z,5.43
2019-03-03T20:07:02.018Z,5.48
2019-03-03T20:09:32.272Z,5.50
2019-03-03T20:12:02.487Z,5.44
2019-03-03T20:14:32.724Z,5.39
2019-03-03T20:17:25.496Z,5.39
2019-03-03T20:19:55.603Z,5.36
2019-03-03T20:22:25.875Z,5.24
2019-03-03T20:24:56.127Z,5.24
2019-03-03T20:27:26.261Z,5.27
2019-03-03T20:29:56.513Z,5.23
2019-03-03T20:32:26.591Z,5.24
2019-03-03T20:34:56.866Z,5.27
2019-03-03T20:37:26.969Z,5.21
2019-03-03T20:39:57.686Z,5.18
2019-03-03T20:42:48.661Z,5.05
2019-03-03T20:51:16.427Z,4.96
2019-03-03T20:54:19.288Z,4.92
2019-03-03T20:57:08.478Z,4.95
2019-03-03T21:02:27.199Z,5.01
2019-03-03T21:04:58.922Z,5.02
2019-03-03T21:07:29.125Z,5.06
2019-03-03T21:09:59.492Z,5.10
2019-03-03T21:12:29.643Z,5.13
2019-03-03T21:17:41.221Z,5.22
2019-03-03T21:20:13.202Z,5.27
2019-03-03T21:22:43.406Z,5.27
2019-03-03T21:25:17.349Z,5.29
2019-03-03T21:27:48.296Z,5.29
2019-03-03T21:30:22.744Z,5.22
2019-03-03T21:32:52.898Z,5.17
2019-03-03T21:35:23.003Z,5.19
2019-03-03T21:37:53.234Z,5.17
2019-03-03T21:40:23.436Z,5.04
2019-03-03T21:42:53.613Z,5.10
2019-03-03T21:45:27.897Z,5.10
2019-03-03T21:51:00.056Z,5.09
2019-03-03T21:53:30.229Z,5.09
2019-03-03T21:56:00.359Z,5.10
2019-03-03T21:58:30.469Z,5.02
2019-03-03T22:01:00.607Z,5.02
2019-03-03T22:03:30.698Z,4.99
2019-03-03T22:06:00.804Z,4.99
2019-03-03T22:08:49.906Z,5.01
2019-03-03T22:11:19.988Z,4.92
2019-03-03T22:13:50.096Z,4.88
2019-03-03T22:16:20.203Z,4.83
2019-03-03T22:18:50.367Z,4.77
2019-03-03T22:21:20.526Z,4.78
2019-03-03T22:23:52.777Z,4.74
2019-03-03T22:26:41.947Z,4.59
2019-03-03T22:29:12.607Z,4.55
2019-03-03T22:31:42.732Z,4.66
2019-03-03T22:37:08.777Z,4.57
2019-03-03T22:39:38.911Z,4.62
2019-03-03T22:42:09.012Z,4.61
2019-03-03T22:44:51.583Z,4.66
2019-03-03T22:47:21.695Z,4.71
2019-03-03T22:49:51.794Z,4.73
2019-03-03T22:52:27.430Z,4.77
2019-03-03T22:54:57.531Z,4.77
2019-03-03T22:57:27.647Z,4.83
2019-03-03T22:59:57.735Z,4.76
2019-03-03T23:02:27.849Z,4.77
2019-03-03T23:05:19.767Z,4.68
2019-03-03T23:08:27.947Z,4.74
2019-03-03T23:11:21.619Z,4.69
2019-03-03T23:14:29.825Z,4.75
2019-03-03T23:17:23.001Z,4.62
2019-03-03T23:20:31.185Z,4.67
2019-03-03T23:23:39.383Z,4.68
2019-03-03T23:26:16.354Z,4.72
2019-03-03T23:29:00.374Z,4.74
2019-03-03T23:31:30.489Z,4.74
2019-03-03T23:34:00.584Z,4.76
2019-03-03T23:36:30.692Z,4.80
2019-03-03T23:39:00.803Z,4.82
2019-03-03T23:41:32.501Z,4.87
2019-03-03T23:44:02.614Z,4.87
2019-03-03T23:46:32.771Z,4.89
2019-03-03T23:54:47.342Z,4.87
2019-03-03T23:57:17.524Z,4.88
2019-03-03T23:59:47.617Z,4.84
